Tiempo atmosférico en la estación meteorológica de Alosno, Huelva (276 m.)



Fecha
DESCASC
Temp. máxima en grados centígrados (hora)
DESCASC
Temp. mínima en grados centígrados (hora)
DESCASC
Temp. media en grados centígrados
DESCASC
Racha de viento máxima en m/sg (hora)
DESCASC
Velocidad máxima media en intervalos de 10 minutos(hora)
DESCASC
Precipitaciones diarias en mm
DESCASC
Precipitaciones de 00:00 a 06:00 en mm
DESCASC
Precipitaciones de 06:00 a 12:00 en mm
DESCASC
Precipitaciones de 12:00 a 18:00 en mm
DESCASC
Precipitaciones de 18:00 a 24:00 en mm
DESCASC

Gráficas

Temp. máximas Temp. mínimas Temp. medias Precipitaciones Rachas de viento máximas Velocidades máximas media en intervalos de 10 minutos

Datos horarios

Fecha y hora oficial Temperatura (ºC) Velocidad del viento (km/h) Dirección del viento Racha (km/h) Dirección de racha Precipitación (mm) Presión (hPa) Tendencia (hPa) Humedad (%)
2019-10-16 23:00:00 14.9 9 Noroeste 20 Oeste 0 -- -- 68
2019-10-16 22:00:00 16.5 9 Oeste 14 Oeste 0 -- -- 63
2019-10-16 21:00:00 17 9 Sudoeste 17 Sudoeste 0 -- -- 60
2019-10-16 20:00:00 18.6 13 Sudoeste 21 Sudoeste 0 -- -- 52
2019-10-16 19:00:00 20.4 17 Sudoeste 23 Sudoeste 0 -- -- 44
2019-10-16 18:00:00 22.5 10 Oeste 19 Oeste 0 -- -- 33
2019-10-16 17:00:00 22.4 13 Oeste 25 Oeste 0 -- -- 34
2019-10-16 16:00:00 21.9 10 Noroeste 21 Noroeste 0 -- -- 35
2019-10-16 15:00:00 21.4 10 Noroeste 18 Oeste 0 -- -- 37
2019-10-16 14:00:00 20.5 8 Noroeste 14 Norte 0 -- -- 41
2019-10-16 13:00:00 19.9 5 Noroeste 14 Oeste 0 -- -- 45
2019-10-16 12:00:00 18.9 5 Sur 9 Sur 0 -- -- 50
2019-10-16 11:00:00 16.3 3 Norte 6 Noroeste 0 -- -- 65
2019-10-16 10:00:00 12.6 3 Noroeste 9 Noroeste 0 -- -- 80
2019-10-16 09:00:00 10.8 4 Oeste 10 Noroeste 0 -- -- 86
2019-10-16 08:00:00 10.9 5 Oeste 10 Noroeste 0 -- -- 84
2019-10-16 07:00:00 10.8 7 Noroeste 14 Noroeste 0 -- -- 84
2019-10-16 06:00:00 10.8 11 Noroeste 16 Noroeste 0 -- -- 81
2019-10-16 05:00:00 11.1 11 Noroeste 15 Noroeste 0 -- -- 79
2019-10-16 04:00:00 11 7 Noroeste 13 Noroeste 0 -- -- 78
2019-10-16 03:00:00 11.7 12 Noroeste 16 Noroeste 0 -- -- 75
2019-10-16 02:00:00 12.6 4 Oeste 11 Noroeste 0 -- -- 67
2019-10-16 01:00:00 13.4 10 Noroeste 16 Noroeste 0 -- -- 60
2019-10-16 00:00:00 14.7 2 Nordeste 11 Norte 0 -- -- 55
2019-10-15 23:00:00 15.4 5 Norte 10 Norte 0 -- -- 51
2019-10-15 22:00:00 15.7 6 Norte 15 Norte 0 -- -- 50
2019-10-15 21:00:00 16.4 5 Norte 12 Norte 0 -- -- 49
2019-10-15 20:00:00 17.6 7 Norte 17 Norte 0 -- -- 46
2019-10-15 19:00:00 19.1 10 Norte 22 Noroeste 0 -- -- 42
2019-10-15 18:00:00 19.7 11 Norte 25 Norte 0 -- -- 39
2019-10-15 17:00:00 19.4 8 Norte 21 Noroeste 0 -- -- 37
2019-10-15 16:00:00 19.8 9 Noroeste 16 Noroeste 0 -- -- 40
2019-10-15 15:00:00 18.9 9 Norte 18 Norte 0 -- -- 40
2019-10-15 14:00:00 17.9 6 Norte 17 Norte 0 -- -- 50
2019-10-15 13:00:00 16.8 10 Norte 22 Norte 0 -- -- 53
2019-10-15 12:00:00 15.6 11 Norte 18 Noroeste 0 -- -- 66
2019-10-15 11:00:00 14.2 11 Norte 18 Norte 0 -- -- 75
2019-10-15 10:00:00 11.1 10 Noroeste 16 Norte 0 -- -- 87
2019-10-15 09:00:00 9.1 9 Noroeste 13 Noroeste 0 -- -- 98
2019-10-15 08:00:00 9.5 10 Noroeste 13 Noroeste 0 -- -- 97
2019-10-15 07:00:00 9.9 9 Noroeste 12 Noroeste 0 -- -- 93
2019-10-15 06:00:00 10.1 6 Noroeste 9 Oeste 0 -- -- 89
2019-10-15 05:00:00 10.1 5 Oeste 10 Noroeste 0 -- -- 89
2019-10-15 04:00:00 10.3 4 Noroeste 10 Noroeste 0 -- -- 88
2019-10-15 03:00:00 10.8 4 Noroeste 13 Noroeste 0 -- -- 87
2019-10-15 02:00:00 11.4 4 Oeste 10 Noroeste 0 -- -- 86
2019-10-15 01:00:00 12.2 5 Oeste 13 Noroeste 0 -- -- 83
2019-10-15 00:00:00 12.7 7 Noroeste 19 Noroeste 0 -- -- 80
2019-10-14 23:00:00 13.3 9 Noroeste 19 Oeste 0 -- -- 75
2019-10-14 22:00:00 15 13 Oeste 21 Noroeste 0 -- -- 69
2019-10-14 21:00:00 15 10 Noroeste 20 Noroeste 0 -- -- 76
2019-10-14 20:00:00 16.3 10 Noroeste 34 Oeste 0 -- -- 74
2019-10-14 19:00:00 17.4 23 Noroeste 35 Noroeste 0 -- -- 68
2019-10-14 18:00:00 16.3 18 Noroeste 42 Noroeste 0 -- -- 83
2019-10-14 17:00:00 17.7 23 Noroeste 47 Noroeste 0 -- -- 76
2019-10-14 16:00:00 20.3 14 Oeste 32 Sudoeste 0 -- -- 56
2019-10-14 15:00:00 20.9 19 Oeste 34 Oeste 0 -- -- 49
2019-10-14 14:00:00 20.6 23 Sudoeste 36 Oeste 0 -- -- 55
2019-10-14 13:00:00 19.9 17 Oeste 30 Sudoeste 0 -- -- 64
2019-10-14 12:00:00 17.7 14 Noroeste 23 Oeste 0 -- -- 71
2019-10-14 11:00:00 17 6 Oeste 19 Noroeste 0 -- -- 80
2019-10-14 10:00:00 15.3 11 Noroeste 23 Noroeste 0 -- -- 88
2019-10-14 09:00:00 14.8 15 Oeste 24 Oeste 0 -- -- 96
2019-10-14 08:00:00 15 11 Oeste 23 Oeste 0.2 -- -- 97
2019-10-14 07:00:00 15.3 13 Oeste 22 Oeste 0 -- -- 96
2019-10-14 06:00:00 15.6 12 Oeste 36 Noroeste 5 -- -- 95
2019-10-14 05:00:00 17.6 16 Sudoeste 36 Sudoeste 0 -- -- 95
2019-10-14 04:00:00 17.3 17 Sudoeste 34 Sudoeste 0 -- -- 94
2019-10-14 03:00:00 17.1 21 Sudoeste 37 Oeste 0 -- -- 90
2019-10-14 02:00:00 17.4 15 Sudoeste 31 Sudoeste 0 -- -- 85
2019-10-14 01:00:00 17.9 19 Sudoeste 25 Sudoeste 0 -- -- 81
2019-10-14 00:00:00 18.3 13 Sudoeste 20 Sudoeste 0 -- -- 83
2019-10-13 23:00:00 19 13 Sudoeste 17 Sudoeste 0 -- -- 73
2019-10-13 22:00:00 19.3 10 Sudoeste 18 Sur 0 -- -- 72
2019-10-13 21:00:00 20.5 13 Sudoeste 20 Sur 0 -- -- 68
2019-10-13 20:00:00 22.4 14 Sur 20 Sudoeste 0 -- -- 56
2019-10-13 19:00:00 23.9 14 Sur 26 Sur 0 -- -- 52
2019-10-13 18:00:00 25.1 16 Sur 26 Sur 0 -- -- 46
2019-10-13 17:00:00 25.2 18 Sur 30 Sur 0 -- -- 47
2019-10-13 16:00:00 25.1 13 Sur 26 Sur 0 -- -- 50
2019-10-13 15:00:00 24.1 16 Sur 29 Sudeste 0 -- -- 54
2019-10-13 14:00:00 23.4 14 Sur 28 Sur 0 -- -- 55
2019-10-13 13:00:00 21.9 15 Sudeste 26 Sur 0 -- -- 63
2019-10-13 12:00:00 20.2 7 Sudeste 18 Sur 0 -- -- 70
2019-10-13 11:00:00 16.5 8 Este 17 Este 0 -- -- 96
2019-10-13 10:00:00 14.9 10 Este 13 Este 0 -- -- 100
2019-10-13 09:00:00 14.5 8 Este 12 Este 0 -- -- 99
2019-10-13 08:00:00 14.3 3 Este 9 Este 0 -- -- 99
2019-10-13 07:00:00 13.3 4 Nordeste 8 Nordeste 0 -- -- 97
2019-10-13 06:00:00 15.3 2 Sudoeste 10 Oeste 0 -- -- 96
2019-10-13 05:00:00 14.6 3 Sur 7 Sudoeste 0 -- -- 92
2019-10-13 04:00:00 15.2 6 Sudoeste 10 Sur 0 -- -- 88
2019-10-13 03:00:00 15.5 6 Sur 10 Sudoeste 0 -- -- 85
2019-10-13 02:00:00 15.7 4 Sudoeste 7 Sudoeste 0 -- -- 87
2019-10-13 01:00:00 15.9 5 Sudoeste 10 Sudoeste 0 -- -- 91
2019-10-13 00:00:00 16.6 5 Sudoeste 15 Sudoeste 0 -- -- 90
2019-10-12 23:00:00 17.4 11 Sudoeste 22 Sur 0 -- -- 87
2019-10-12 22:00:00 18.1 19 Sur 29 Sur 0 -- -- 83
2019-10-12 21:00:00 19.3 21 Sur 29 Sur 0 -- -- 85
2019-10-12 20:00:00 21.1 22 Sur 28 Sur 0 -- -- 82
2019-10-12 19:00:00 22.7 18 Sur 31 Sur 0 -- -- 72
2019-10-12 18:00:00 23 23 Sur 38 Sudoeste 0 -- -- 72
2019-10-12 17:00:00 23.6 26 Sur 42 Sur 0 -- -- 69
2019-10-12 16:00:00 24.1 27 Sur 54 Sur 0 -- -- 67
2019-10-12 15:00:00 24.5 35 Sur 47 Sudoeste 0 -- -- 64
2019-10-12 14:00:00 23.8 19 Sur 38 Sur 0 -- -- 67
2019-10-12 13:00:00 22 26 Sur 38 Sur 0 -- -- 73
2019-10-12 12:00:00 21.3 19 Sur 31 Sur 0 -- -- 77
2019-10-12 11:00:00 20.9 13 Sur 22 Sur 0 -- -- 78
2019-10-12 10:00:00 19.6 14 Sur 24 Sur 0 -- -- 85
2019-10-12 09:00:00 18.9 13 Sudeste 20 Sur 0 -- -- 90
2019-10-12 08:00:00 19.1 15 Sudeste 24 Sudeste 0 -- -- 89
2019-10-12 07:00:00 18.9 8 Sur 17 Sur 0 -- -- 89
2019-10-12 06:00:00 19 2 Sudeste 18 Sudoeste 0 -- -- 89
2019-10-12 05:00:00 19.2 8 Sur 14 Sudoeste 0 -- -- 89
2019-10-12 04:00:00 19.5 8 Sur 25 Sudoeste 0 -- -- 86
2019-10-12 03:00:00 20.5 11 Este 19 Sudeste 0 -- -- 79
2019-10-12 02:00:00 20.2 7 Este 25 Sur 0 -- -- 82
2019-10-12 01:00:00 19.9 10 Este 19 Sudeste 0 -- -- 84
2019-10-12 00:00:00 20.3 11 Sudeste 23 Sudeste 0 -- -- 83
2019-10-11 23:00:00 20.5 15 Sur 30 Sur 0 -- -- 82
2019-10-11 22:00:00 20.9 20 Sur 27 Sur 0 -- -- 79
2019-10-11 21:00:00 21.7 14 Sur 22 Sur 0 -- -- 73
2019-10-11 20:00:00 22.3 11 Sur 28 Sur 0 -- -- 70
2019-10-11 19:00:00 24.2 17 Sur 32 Sudoeste 0 -- -- 60
2019-10-11 18:00:00 25.3 15 Sur 27 Sur 0 -- -- 51
2019-10-11 17:00:00 25.5 13 Sudeste 28 Sur 0 -- -- 50
2019-10-11 16:00:00 24.8 14 Sur 29 Sur 0 -- -- 51
2019-10-11 15:00:00 24.3 19 Sur 30 Sur 0 -- -- 50
2019-10-11 14:00:00 24.9 15 Sur 24 Sur 0 -- -- 50
2019-10-11 13:00:00 24.5 12 Sudeste 26 Sudeste 0 -- -- 53
2019-10-11 12:00:00 24.5 12 Sudeste 24 Este 0 -- -- 53
2019-10-11 11:00:00 21.1 9 Sudeste 18 Sudeste 0 -- -- 64
2019-10-11 10:00:00 18.4 6 Este 10 Este 0 -- -- 72
2019-10-11 09:00:00 17.7 7 Este 13 Este 0 -- -- 79
2019-10-11 08:00:00 18 7 Este 9 Nordeste 0 -- -- 78
2019-10-11 07:00:00 18.4 3 Nordeste 7 Noroeste 0 -- -- 77
2019-10-11 06:00:00 18.9 4 Oeste 7 Oeste 0 -- -- 75
2019-10-11 05:00:00 18.8 2 Norte 6 Norte 0 -- -- 77
2019-10-11 04:00:00 19.1 0 Calma 5 Oeste 0 -- -- 76
2019-10-11 03:00:00 19.6 3 Oeste 10 Oeste 0 -- -- 74
2019-10-11 02:00:00 19.8 4 Oeste 9 Oeste 0 -- -- 73
2019-10-11 01:00:00 20.4 4 Oeste 15 Sudoeste 0 -- -- 71
2019-10-11 00:00:00 21.5 13 Sudoeste 21 Sudoeste 0 -- -- 67
2019-10-10 23:00:00 21.9 13 Sudoeste 20 Sur 0 -- -- 66
2019-10-10 22:00:00 22.5 12 Sudoeste 17 Sudoeste 0 -- -- 64
2019-10-10 21:00:00 23.5 12 Sudoeste 21 Sudoeste 0 -- -- 58
2019-10-10 20:00:00 25.6 13 Sudoeste 20 Sur 0 -- -- 50
2019-10-10 19:00:00 28 15 Sudoeste 24 Sudoeste 0 -- -- 43
2019-10-10 18:00:00 29.6 14 Sudoeste 24 Sudoeste 0 -- -- 37
2019-10-10 17:00:00 30.7 6 Sur 22 Sur 0 -- -- 33
2019-10-10 16:00:00 30 12 Sur 23 Sur 0 -- -- 34
2019-10-10 15:00:00 29.2 13 Sur 21 Sur 0 -- -- 35
2019-10-10 14:00:00 27.7 9 Sudeste 17 Sur 0 -- -- 37
2019-10-10 13:00:00 25.7 12 Sur 23 Sur 0 -- -- 40
2019-10-10 12:00:00 23.5 16 Sur 30 Sur 0 -- -- 43
2019-10-10 11:00:00 22.2 16 Sur 23 Sur 0 -- -- 48
2019-10-10 10:00:00 16.3 0 Calma 9 Noroeste 0 -- -- 64
2019-10-10 09:00:00 13.6 6 Noroeste 10 Noroeste 0 -- -- 74
2019-10-10 08:00:00 13.9 3 Oeste 12 Oeste 0 -- -- 72
2019-10-10 07:00:00 14.1 7 Oeste 14 Oeste 0 -- -- 70
2019-10-10 06:00:00 14.9 6 Oeste 13 Noroeste 0 -- -- 67
2019-10-10 05:00:00 15.6 6 Oeste 15 Oeste 0 -- -- 64
2019-10-10 04:00:00 16.3 8 Oeste 20 Noroeste 0 -- -- 59
2019-10-10 03:00:00 17.4 13 Noroeste 18 Oeste 0 -- -- 54
2019-10-10 02:00:00 18.2 13 Noroeste 20 Noroeste 0 -- -- 48
2019-10-10 01:00:00 20 11 Noroeste 23 Noroeste 0 -- -- 42
2019-10-10 00:00:00 21.3 14 Noroeste 24 Noroeste 0 -- -- 38
2019-10-09 23:00:00 22.9 15 Noroeste 24 Noroeste 0 -- -- 36
2019-10-09 22:00:00 24 13 Noroeste 21 Noroeste 0 -- -- 37
2019-10-09 21:00:00 25.9 12 Noroeste 18 Noroeste 0 -- -- 37
2019-10-09 20:00:00 27.5 13 Noroeste 23 Noroeste 0 -- -- 37
2019-10-09 19:00:00 29.5 14 Noroeste 23 Noroeste 0 -- -- 37
2019-10-09 18:00:00 29.8 13 Noroeste 23 Noroeste 0 -- -- 38
2019-10-09 17:00:00 29.5 13 Noroeste 29 Noroeste 0 -- -- 40
2019-10-09 16:00:00 29.6 15 Noroeste 24 Noroeste 0 -- -- 41
2019-10-09 15:00:00 28.7 10 Noroeste 18 Noroeste 0 -- -- 42
2019-10-09 14:00:00 27.6 11 Noroeste 17 Noroeste 0 -- -- 47
2019-10-09 13:00:00 24.5 8 Noroeste 21 Noroeste 0 -- -- 56
2019-10-09 12:00:00 21 14 Noroeste 27 Noroeste 0 -- -- 68
2019-10-09 11:00:00 18.2 18 Noroeste 27 Noroeste 0 -- -- 78
2019-10-09 10:00:00 16.4 18 Noroeste 27 Noroeste 0 -- -- 86
2019-10-09 09:00:00 15.5 17 Noroeste 26 Noroeste 0 -- -- 90
2019-10-09 08:00:00 16.1 18 Noroeste 27 Noroeste 0 -- -- 90
2019-10-09 07:00:00 16.9 14 Noroeste 31 Noroeste 0 -- -- 89
2019-10-09 06:00:00 17.5 22 Noroeste 32 Noroeste 0 -- -- 88
2019-10-09 05:00:00 18.2 16 Noroeste 27 Noroeste 0 -- -- 83
2019-10-09 04:00:00 18.6 15 Noroeste 22 Noroeste 0 -- -- 74
2019-10-09 03:00:00 19.4 12 Noroeste 18 Noroeste 0 -- -- 68
2019-10-09 02:00:00 20.8 8 Noroeste 13 Noroeste 0 -- -- 64
2019-10-09 01:00:00 21.4 5 Norte 9 Oeste 0 -- -- 61
2019-10-09 00:00:00 22.8 9 Noroeste 17 Oeste 0 -- -- 58
2019-10-08 23:00:00 22.7 9 Sudoeste 17 Sudoeste 0 -- -- 60
2019-10-08 22:00:00 23.3 14 Sudoeste 24 Sudoeste 0 -- -- 59
2019-10-08 21:00:00 24.4 22 Sudoeste 28 Sur 0 -- -- 56
2019-10-08 20:00:00 26.6 13 Sudoeste 21 Sudoeste 0 -- -- 44
2019-10-08 19:00:00 29.2 14 Sudoeste 23 Sur 0 -- -- 37
2019-10-08 18:00:00 29.6 16 Sudoeste 30 Sudoeste 0 -- -- 35
2019-10-08 17:00:00 30 18 Sudoeste 29 Sudoeste 0 -- -- 34
2019-10-08 16:00:00 30.4 20 Sudoeste 30 Sudoeste 0 -- -- 33
2019-10-08 15:00:00 30.4 18 Sur 28 Sudoeste 0 -- -- 31
2019-10-08 14:00:00 29.6 18 Sudoeste 27 Sur 0 -- -- 35
2019-10-08 13:00:00 28.3 15 Sur 24 Sur 0 -- -- 36
2019-10-08 12:00:00 26.5 12 Sur 18 Sur 0 -- -- 39
2019-10-08 11:00:00 24.7 13 Sur 19 Sur 0 -- -- 36
2019-10-08 10:00:00 21.8 6 Sur 12 Sur 0 -- -- 41
2019-10-08 09:00:00 18.1 3 Sudoeste 12 Oeste 0 -- -- 53
2019-10-08 08:00:00 17.9 7 Oeste 12 Oeste 0 -- -- 53
2019-10-08 07:00:00 18.2 5 Oeste 15 Oeste 0 -- -- 52
2019-10-08 06:00:00 19.2 9 Oeste 14 Oeste 0 -- -- 48
2019-10-08 05:00:00 20 9 Oeste 14 Oeste 0 -- -- 45
2019-10-08 04:00:00 20.9 8 Noroeste 12 Noroeste 0 -- -- 43
2019-10-08 03:00:00 21.3 8 Oeste 16 Noroeste 0 -- -- 43
2019-10-08 02:00:00 22.3 11 Noroeste 18 Noroeste 0 -- -- 39
2019-10-08 01:00:00 23.6 11 Noroeste 16 Noroeste 0 -- -- 36
2019-10-08 00:00:00 24.5 9 Noroeste 14 Noroeste 0 -- -- 34
2019-10-07 23:00:00 25.4 10 Noroeste 15 Noroeste 0 -- -- 34
2019-10-07 22:00:00 26.7 9 Noroeste 15 Noroeste 0 -- -- 30
2019-10-07 21:00:00 28 8 Noroeste 17 Noroeste 0 -- -- 29
2019-10-07 20:00:00 30.6 10 Noroeste 22 Noroeste 0 -- -- 25
2019-10-07 19:00:00 32.5 14 Noroeste 28 Noroeste 0 -- -- 22
2019-10-07 18:00:00 33.1 14 Noroeste 24 Oeste 0 -- -- 25
2019-10-07 17:00:00 32.9 11 Noroeste 22 Noroeste 0 -- -- 25
2019-10-07 16:00:00 32.1 11 Noroeste 27 Noroeste 0 -- -- 22
2019-10-07 15:00:00 31.2 14 Noroeste 24 Noroeste 0 -- -- 22
2019-10-07 14:00:00 29.7 14 Noroeste 28 Noroeste 0 -- -- 25
2019-10-07 13:00:00 26.9 15 Noroeste 23 Noroeste 0 -- -- 40
2019-10-07 12:00:00 22.4 13 Noroeste 21 Noroeste 0 -- -- 58
2019-10-07 11:00:00 18.9 11 Oeste 20 Oeste 0 -- -- 73
2019-10-07 10:00:00 16 10 Oeste 21 Oeste 0 -- -- 86
2019-10-07 09:00:00 14.5 10 Oeste 21 Oeste 0 -- -- 92
2019-10-07 08:00:00 14.4 8 Oeste 19 Oeste 0 -- -- 92
2019-10-07 07:00:00 15 10 Oeste 18 Noroeste 0 -- -- 90
2019-10-07 06:00:00 16 9 Oeste 22 Noroeste 0 -- -- 83
2019-10-07 05:00:00 17.1 9 Oeste 18 Oeste 0 -- -- 75
2019-10-07 04:00:00 17.9 13 Noroeste 19 Noroeste 0 -- -- 64
2019-10-07 03:00:00 18.9 12 Noroeste 18 Noroeste 0 -- -- 58
2019-10-07 02:00:00 20.2 10 Noroeste 20 Norte 0 -- -- 50
2019-10-07 01:00:00 20.8 11 Noroeste 17 Noroeste 0 -- -- 44
2019-10-07 00:00:00 22 11 Noroeste 16 Noroeste 0 -- -- 38
2019-10-06 23:00:00 24.3 10 Noroeste 19 Noroeste 0 -- -- 34
2019-10-06 22:00:00 24 10 Noroeste 14 Noroeste 0 -- -- 32
2019-10-06 21:00:00 24.9 6 Noroeste 14 Noroeste 0 -- -- 31
2019-10-06 20:00:00 27.4 11 Noroeste 20 Noroeste 0 -- -- 27
2019-10-06 19:00:00 29.5 12 Noroeste 22 Noroeste 0 -- -- 23
2019-10-06 18:00:00 29.5 12 Noroeste 23 Noroeste 0 -- -- 25
2019-10-06 17:00:00 29.4 15 Noroeste 25 Noroeste 0 -- -- 25
2019-10-06 16:00:00 28.6 10 Noroeste 22 Noroeste 0 -- -- 27
2019-10-06 15:00:00 27.1 9 Noroeste 17 Noroeste 0 -- -- 33
2019-10-06 14:00:00 25.5 9 Noroeste 15 Oeste 0 -- -- 41
2019-10-06 13:00:00 23 8 Noroeste 15 Noroeste 0 -- -- 48
2019-10-06 12:00:00 18.6 7 Noroeste 15 Noroeste 0 -- -- 64
2019-10-06 11:00:00 15.2 10 Noroeste 19 Oeste 0 -- -- 77
2019-10-06 10:00:00 12.8 10 Oeste 22 Noroeste 0 -- -- 87
2019-10-06 09:00:00 11.2 12 Noroeste 24 Noroeste 0 -- -- 92
2019-10-06 08:00:00 11.3 12 Noroeste 19 Noroeste 0 -- -- 89
2019-10-06 07:00:00 11.8 15 Noroeste 25 Noroeste 0 -- -- 88
2019-10-06 06:00:00 12.4 17 Noroeste 28 Noroeste 0 -- -- 87
2019-10-06 05:00:00 13.1 17 Noroeste 25 Noroeste 0 -- -- 84
2019-10-06 04:00:00 14.5 4 Noroeste 14 Noroeste 0 -- -- 77
2019-10-06 03:00:00 15.4 8 Noroeste 31 Noroeste 0 -- -- 73
2019-10-06 02:00:00 16.3 20 Noroeste 32 Noroeste 0 -- -- 71
2019-10-06 01:00:00 17.1 19 Noroeste 27 Noroeste 0 -- -- 69
2019-10-06 00:00:00 18.9 16 Noroeste 27 Noroeste 0 -- -- 58
2019-10-05 23:00:00 20.9 18 Noroeste 29 Noroeste 0 -- -- 52
2019-10-05 22:00:00 21.7 12 Noroeste 21 Noroeste 0 -- -- 46
2019-10-05 21:00:00 22.1 7 Noroeste 17 Norte 0 -- -- 46
2019-10-05 20:00:00 24.3 12 Noroeste 23 Noroeste 0 -- -- 42
2019-10-05 19:00:00 25.7 16 Noroeste 28 Noroeste 0 -- -- 36
2019-10-05 18:00:00 25.8 15 Noroeste 25 Noroeste 0 -- -- 36
2019-10-05 17:00:00 25 15 Noroeste 27 Noroeste 0 -- -- 35
2019-10-05 16:00:00 23.5 16 Noroeste 30 Noroeste 0 -- -- 40
2019-10-05 15:00:00 24.7 15 Noroeste 27 Noroeste 0 -- -- 41
2019-10-05 14:00:00 22.6 15 Noroeste 25 Noroeste 0 -- -- 50
2019-10-05 13:00:00 19.6 16 Noroeste 24 Noroeste 0 -- -- 61
2019-10-05 12:00:00 17.5 15 Noroeste 26 Noroeste 0 -- -- 71
2019-10-05 11:00:00 16.5 15 Noroeste 23 Noroeste 0 -- -- 76
2019-10-05 10:00:00 14.5 15 Noroeste 24 Noroeste 0 -- -- 85
2019-10-05 09:00:00 13 13 Noroeste 23 Noroeste 0 -- -- 91
2019-10-05 08:00:00 12.7 14 Noroeste 24 Oeste 0 -- -- 91
2019-10-05 07:00:00 13.3 14 Noroeste 26 Noroeste 0 -- -- 89
2019-10-05 06:00:00 13.9 14 Noroeste 22 Noroeste 0 -- -- 87
2019-10-05 05:00:00 14.5 13 Noroeste 20 Noroeste 0 -- -- 86
2019-10-05 04:00:00 15.5 13 Noroeste 28 Noroeste 0 -- -- 84
2019-10-05 03:00:00 16.4 19 Noroeste 28 Noroeste 0 -- -- 82
2019-10-05 02:00:00 17.2 17 Noroeste 25 Noroeste 0 -- -- 81
2019-10-05 01:00:00 18.4 17 Noroeste 23 Noroeste 0 -- -- 77
2019-10-05 00:00:00 19.1 14 Noroeste 24 Noroeste 0 -- -- 73
2019-10-04 23:00:00 20.7 11 Noroeste 15 Noroeste 0 -- -- 65
2019-10-04 22:00:00 22.5 8 Oeste 13 Noroeste 0 -- -- 59
2019-10-04 21:00:00 23.1 6 Noroeste 14 Noroeste 0 -- -- 56
2019-10-04 20:00:00 24.9 10 Noroeste 21 Oeste 0 -- -- 52
2019-10-04 19:00:00 25.7 10 Noroeste 24 Norte 0 -- -- 51
2019-10-04 18:00:00 25.8 13 Noroeste 27 Norte 0 -- -- 51
2019-10-04 17:00:00 25.5 12 Noroeste 35 Oeste 0 -- -- 53
2019-10-04 16:00:00 24.8 11 Noroeste 28 Norte 0 -- -- 57
2019-10-04 15:00:00 23.8 17 Noroeste 30 Noroeste 0 -- -- 62
2019-10-04 14:00:00 22.6 17 Noroeste 30 Noroeste 0 -- -- 66
2019-10-04 13:00:00 21.7 16 Noroeste 30 Norte 0 -- -- 70
2019-10-04 12:00:00 19.9 18 Norte 32 Noroeste 0 -- -- 80
2019-10-04 11:00:00 18.8 15 Noroeste 27 Norte 0 -- -- 87
2019-10-04 10:00:00 17.5 15 Noroeste 25 Noroeste 0 -- -- 93
2019-10-04 09:00:00 16.2 12 Noroeste 22 Noroeste 0 -- -- 97
2019-10-04 08:00:00 15.3 14 Noroeste 23 Noroeste 0 -- -- 98
2019-10-04 07:00:00 14.9 14 Noroeste 23 Noroeste 0 -- -- 94
2019-10-04 06:00:00 15.6 17 Noroeste 25 Noroeste 0 -- -- 90
2019-10-04 05:00:00 16.4 16 Noroeste 26 Noroeste 0 -- -- 87
2019-10-04 04:00:00 17.2 15 Noroeste 25 Noroeste 0 -- -- 84
2019-10-04 03:00:00 17.6 10 Noroeste 22 Noroeste 0 -- -- 83
2019-10-04 02:00:00 18 13 Noroeste 26 Noroeste 0 -- -- 81
2019-10-04 01:00:00 18.8 19 Noroeste 28 Noroeste 0 -- -- 77
2019-10-04 00:00:00 19.9 14 Noroeste 28 Noroeste 0 -- -- 72
2019-10-03 23:00:00 20.9 14 Noroeste 21 Noroeste 0 -- -- 65
2019-10-03 22:00:00 22.3 10 Noroeste 17 Noroeste 0 -- -- 33
2019-10-03 21:00:00 23.6 9 Noroeste 13 Noroeste 0 -- -- 31
2019-10-03 20:00:00 26.5 12 Noroeste 24 Noroeste 0 -- -- 27
2019-10-03 19:00:00 27.7 16 Noroeste 27 Noroeste 0 -- -- 25
2019-10-03 18:00:00 28.2 14 Noroeste 29 Norte 0 -- -- 28
2019-10-03 17:00:00 27.6 17 Noroeste 32 Noroeste 0 -- -- 29
2019-10-03 16:00:00 27.2 16 Noroeste 30 Oeste 0 -- -- 30
2019-10-03 15:00:00 26.2 19 Noroeste 31 Oeste 0 -- -- 35
2019-10-03 14:00:00 24.3 16 Noroeste 30 Noroeste 0 -- -- 43
2019-10-03 13:00:00 20.9 16 Noroeste 24 Noroeste 0 -- -- 55
2019-10-03 12:00:00 18 17 Noroeste 30 Noroeste 0 -- -- 66
2019-10-03 11:00:00 15.5 21 Noroeste 28 Noroeste 0 -- -- 74
2019-10-03 10:00:00 13 18 Noroeste 31 Noroeste 0 -- -- 84
2019-10-03 09:00:00 11 20 Noroeste 30 Noroeste 0 -- -- 91
2019-10-03 08:00:00 10.8 13 Noroeste 28 Noroeste 0 -- -- 91
2019-10-03 07:00:00 11.3 19 Noroeste 27 Noroeste 0 -- -- 90
2019-10-03 06:00:00 12 15 Noroeste 22 Noroeste 0 -- -- 87
2019-10-03 05:00:00 13 15 Noroeste 27 Noroeste 0 -- -- 83
2019-10-03 04:00:00 13.9 17 Noroeste 26 Noroeste 0 -- -- 81
2019-10-03 03:00:00 15 16 Noroeste 25 Noroeste 0 -- -- 77
2019-10-03 02:00:00 15.8 14 Noroeste 26 Noroeste 0 -- -- 75
2019-10-03 01:00:00 16.7 14 Noroeste 24 Noroeste 0 -- -- 72
2019-10-03 00:00:00 18 14 Noroeste 27 Noroeste 0 -- -- 68
2019-10-02 23:00:00 19.8 16 Noroeste 24 Noroeste 0 -- -- 59
2019-10-02 22:00:00 20.6 11 Noroeste 19 Noroeste 0 -- -- 47
2019-10-02 21:00:00 22.2 10 Noroeste 17 Noroeste 0 -- -- 42
2019-10-02 20:00:00 24.7 12 Noroeste 27 Noroeste 0 -- -- 36
2019-10-02 19:00:00 26.5 18 Noroeste 33 Noroeste 0 -- -- 32
2019-10-02 18:00:00 26.9 16 Noroeste 31 Noroeste 0 -- -- 29
2019-10-02 17:00:00 26.1 16 Noroeste 30 Norte 0 -- -- 33
2019-10-02 16:00:00 25.2 16 Noroeste 32 Noroeste 0 -- -- 33
2019-10-02 15:00:00 24 15 Noroeste 33 Noroeste 0 -- -- 42
2019-10-02 14:00:00 21.9 16 Norte 29 Noroeste 0 -- -- 51
2019-10-02 13:00:00 19.7 16 Noroeste 27 Noroeste 0 -- -- 60
2019-10-02 12:00:00 17.1 18 Norte 33 Norte 0 -- -- 73
2019-10-02 11:00:00 15 21 Noroeste 33 Norte 0 -- -- 84
2019-10-02 10:00:00 13 13 Norte 30 Noroeste 0 -- -- 96
2019-10-02 09:00:00 12.6 18 Noroeste 33 Noroeste 0 -- -- 97
2019-10-02 08:00:00 12.8 19 Noroeste 30 Noroeste 0 -- -- 96
2019-10-02 07:00:00 13.2 19 Noroeste 31 Noroeste 0 -- -- 94
2019-10-02 06:00:00 13.6 19 Noroeste 28 Oeste 0 -- -- 92
2019-10-02 05:00:00 14.6 19 Noroeste 31 Noroeste 0 -- -- 86
2019-10-02 04:00:00 15.5 13 Noroeste 26 Noroeste 0 -- -- 82
2019-10-02 03:00:00 16.5 15 Noroeste 31 Noroeste 0 -- -- 80
2019-10-02 02:00:00 17.3 19 Noroeste 29 Noroeste 0 -- -- 77
2019-10-02 01:00:00 18.1 19 Noroeste 28 Noroeste 0 -- -- 76
2019-10-02 00:00:00 19.2 17 Noroeste 30 Noroeste 0 -- -- 73
2019-10-01 23:00:00 20.8 19 Noroeste 33 Noroeste 0 -- -- 69
2019-10-01 22:00:00 22.7 14 Noroeste 26 Noroeste 0 -- -- 56
2019-10-01 21:00:00 24.2 16 Noroeste 27 Norte 0 -- -- 45
2019-10-01 20:00:00 25.5 19 Noroeste 32 Noroeste 0 -- -- 44
2019-10-01 19:00:00 26.5 19 Norte 37 Norte 0 -- -- 41
2019-10-01 18:00:00 26.7 21 Noroeste 36 Noroeste 0 -- -- 44
2019-10-01 17:00:00 27.3 17 Norte 38 Norte 0 -- -- 45
2019-10-01 16:00:00 26.5 22 Noroeste 43 Norte 0 -- -- 46
2019-10-01 15:00:00 25.8 22 Noroeste 37 Noroeste 0 -- -- 49
2019-10-01 14:00:00 24.7 22 Noroeste 41 Noroeste 0 -- -- 52
2019-10-01 13:00:00 23 23 Noroeste 41 Noroeste 0 -- -- 54
2019-10-01 12:00:00 20.6 26 Norte 40 Norte 0 -- -- 67
2019-10-01 11:00:00 18.5 25 Norte 38 Norte 0 -- -- 77
2019-10-01 10:00:00 16.4 17 Noroeste 35 Noroeste 0 -- -- 91
2019-10-01 09:00:00 15.3 20 Noroeste 29 Norte 0 -- -- 97
2019-10-01 08:00:00 15.4 22 Noroeste 36 Noroeste 0 -- -- 95
2019-10-01 07:00:00 15.3 16 Noroeste 28 Noroeste 0 -- -- 92
2019-10-01 06:00:00 15.6 16 Noroeste 28 Noroeste 0 -- -- 90
2019-10-01 05:00:00 15.8 20 Noroeste 27 Noroeste 0 -- -- 86
2019-10-01 04:00:00 16.8 16 Noroeste 29 Noroeste 0 -- -- 78
2019-10-01 03:00:00 17.5 14 Noroeste 20 Noroeste 0 -- -- 70
2019-10-01 02:00:00 18.8 12 Noroeste 20 Noroeste 0 -- -- 63
2019-10-01 01:00:00 19.8 11 Noroeste 19 Noroeste 0 -- -- 52
2019-10-01 00:00:00 21.5 9 Noroeste 19 Noroeste 0 -- -- 45
2019-09-30 23:00:00 22.7 6 Noroeste 17 Oeste 0 -- -- 38
2019-09-30 22:00:00 24 7 Sudoeste 20 Sudoeste 0 -- -- 33
2019-09-30 21:00:00 25.2 15 Sur 25 Sur 0 -- -- 33
2019-09-30 20:00:00 27.2 16 Sudoeste 23 Sur 0 -- -- 28
2019-09-30 19:00:00 29.1 14 Sur 27 Sudoeste 0 -- -- 29
2019-09-30 18:00:00 30.7 16 Sudoeste 24 Sur 0 -- -- 27
2019-09-30 17:00:00 30.6 15 Sudoeste 29 Sur 0 -- -- 33
2019-09-30 16:00:00 30.2 17 Sudoeste 28 Sur 0 -- -- 34
2019-09-30 15:00:00 30.1 12 Sudoeste 19 Sur 0 -- -- 31
2019-09-30 14:00:00 28.2 10 Sur 21 Sur 0 -- -- 35
2019-09-30 13:00:00 26.4 13 Sur 18 Sur 0 -- -- 48
2019-09-30 12:00:00 25.2 8 Sur 14 Sur 0 -- -- 51
2019-09-30 11:00:00 23.4 8 Este 10 Este 0 -- -- 49
2019-09-30 10:00:00 18.9 0 Calma 5 Noroeste 0 -- -- 70
2019-09-30 09:00:00 16.4 2 Sudoeste 10 Oeste 0 -- -- 80
2019-09-30 08:00:00 15.8 7 Oeste 12 Oeste 0 -- -- 82
2019-09-30 07:00:00 16.1 6 Oeste 12 Noroeste 0 -- -- 78
2019-09-30 06:00:00 16.4 7 Oeste 18 Noroeste 0 -- -- 77
2019-09-30 05:00:00 17 7 Oeste 17 Noroeste 0 -- -- 74
2019-09-30 04:00:00 17.7 12 Noroeste 20 Noroeste 0 -- -- 67
2019-09-30 03:00:00 18.5 6 Oeste 15 Noroeste 0 -- -- 62
2019-09-30 02:00:00 18.8 8 Oeste 15 Noroeste 0 -- -- 70
2019-09-30 01:00:00 20.6 5 Noroeste 8 Noroeste 0 -- -- 64
2019-09-30 00:00:00 21.5 8 Noroeste 9 Noroeste 0 -- -- 55
2019-09-29 23:00:00 22.2 0 Calma 10 Oeste 0 -- -- 55
2019-09-29 22:00:00 22.5 9 Sudoeste 14 Sudoeste 0 -- -- 52
2019-09-29 21:00:00 23 12 Sudoeste 24 Sur 0 -- -- 64
2019-09-29 20:00:00 25.1 21 Sur 26 Sur 0 -- -- 55
2019-09-29 19:00:00 27.1 21 Sur 28 Sudoeste 0 -- -- 47
2019-09-29 18:00:00 28.3 18 Sur 29 Sur 0 -- -- 42
2019-09-29 17:00:00 30.3 19 Sudoeste 31 Sur 0 -- -- 36
2019-09-29 16:00:00 31 10 Sudeste 22 Sudeste 0 -- -- 30
2019-09-29 15:00:00 29.9 6 Sur 17 Sur 0 -- -- 31
2019-09-29 14:00:00 29 8 Sur 16 Sur 0 -- -- 35
2019-09-29 13:00:00 27.1 12 Sur 19 Sur 0 -- -- 37
2019-09-29 12:00:00 24.9 5 Este 11 Este 0 -- -- 41
2019-09-29 11:00:00 20.9 3 Nordeste 8 Noroeste 0 -- -- 58
2019-09-29 10:00:00 17.3 0 Calma 13 Oeste 0 -- -- 74
2019-09-29 09:00:00 14.3 6 Oeste 19 Noroeste 0 -- -- 88
2019-09-29 08:00:00 14.3 7 Oeste 15 Noroeste 0 -- -- 87
2019-09-29 07:00:00 14.4 9 Oeste 16 Oeste 0 -- -- 88
2019-09-29 06:00:00 15.1 7 Oeste 16 Oeste 0 -- -- 85
2019-09-29 05:00:00 15.9 7 Oeste 19 Noroeste 0 -- -- 81
2019-09-29 04:00:00 16.3 14 Noroeste 21 Noroeste 0 -- -- 80
2019-09-29 03:00:00 17.5 9 Noroeste 19 Noroeste 0 -- -- 73
2019-09-29 02:00:00 18.9 9 Noroeste 21 Noroeste 0 -- -- 63
2019-09-29 01:00:00 19.6 14 Noroeste 21 Noroeste 0 -- -- 58
2019-09-29 00:00:00 21 12 Noroeste 19 Oeste 0 -- -- 47
2019-09-28 23:00:00 23.6 9 Noroeste 18 Norte 0 -- -- 37
2019-09-28 22:00:00 25.4 11 Oeste 15 Oeste 0 -- -- 31
2019-09-28 21:00:00 25.4 9 Sudoeste 17 Sudoeste 0 -- -- 34
2019-09-28 20:00:00 28.1 15 Sudoeste 23 Sur 0 -- -- 32
2019-09-28 19:00:00 30 18 Sudoeste 31 Oeste 0 -- -- 31
2019-09-28 18:00:00 32.7 10 Sudoeste 22 Sur 0 -- -- 28
2019-09-28 17:00:00 32.6 8 Noroeste 17 Oeste 0 -- -- 24
2019-09-28 16:00:00 32.4 7 Sudoeste 18 Sur 0 -- -- 24
2019-09-28 15:00:00 31.7 6 Sur 15 Sur 0 -- -- 26
2019-09-28 14:00:00 30.5 3 Sur 9 Nordeste 0 -- -- 29
2019-09-28 13:00:00 27.9 5 Este 9 Sudeste 0 -- -- 35
2019-09-28 12:00:00 23.8 5 Noroeste 10 Noroeste 0 -- -- 54
2019-09-28 11:00:00 19.4 8 Noroeste 14 Noroeste 0 -- -- 74
2019-09-28 10:00:00 16.3 9 Noroeste 18 Oeste 0 -- -- 89
2019-09-28 09:00:00 14.8 9 Oeste 17 Oeste 0 -- -- 95
2019-09-28 08:00:00 14.7 11 Oeste 23 Noroeste 0 -- -- 94
2019-09-28 07:00:00 15.2 15 Noroeste 26 Noroeste 0 -- -- 91
2019-09-28 06:00:00 16 17 Noroeste 25 Noroeste 0 -- -- 85
2019-09-28 05:00:00 16.7 17 Noroeste 23 Noroeste 0 -- -- 78
2019-09-28 04:00:00 17.5 17 Noroeste 23 Noroeste 0 -- -- 69
2019-09-28 03:00:00 18.3 9 Noroeste 18 Noroeste 0 -- -- 62
2019-09-28 02:00:00 19.4 9 Noroeste 17 Noroeste 0 -- -- 53
2019-09-28 01:00:00 20.9 11 Noroeste 15 Noroeste 0 -- -- 43
2019-09-28 00:00:00 22.4 11 Noroeste 19 Norte 0 -- -- 37
2019-09-27 23:00:00 23.9 10 Norte 20 Noroeste 0 -- -- 33
2019-09-27 22:00:00 25.1 10 Noroeste 15 Noroeste 0 -- -- 32
2019-09-27 21:00:00 26.7 9 Noroeste 14 Noroeste 0 -- -- 24
2019-09-27 20:00:00 28.9 10 Noroeste 20 Noroeste 0 -- -- 22
2019-09-27 19:00:00 30.3 13 Noroeste 21 Oeste 0 -- -- 19
2019-09-27 18:00:00 30.4 13 Norte 21 Noroeste 0 -- -- 20
2019-09-27 17:00:00 30.6 10 Noroeste 25 Oeste 0 -- -- 23
2019-09-27 16:00:00 29.5 10 Noroeste 23 Noroeste 0 -- -- 28
2019-09-27 15:00:00 28.4 12 Noroeste 21 Oeste 0 -- -- 34
2019-09-27 14:00:00 27.2 9 Noroeste 17 Noroeste 0 -- -- 39
2019-09-27 13:00:00 24.4 9 Noroeste 17 Noroeste 0 -- -- 49
2019-09-27 12:00:00 22 12 Noroeste 18 Oeste 0 -- -- 56
2019-09-27 11:00:00 18.6 11 Noroeste 18 Oeste 0 -- -- 70
2019-09-27 10:00:00 16.1 10 Oeste 21 Noroeste 0 -- -- 82
2019-09-27 09:00:00 14.3 14 Noroeste 23 Noroeste 0 -- -- 88
2019-09-27 08:00:00 14.4 10 Oeste 17 Noroeste 0 -- -- 87
2019-09-27 07:00:00 14.8 11 Noroeste 23 Oeste 0 -- -- 84
2019-09-27 06:00:00 15.8 15 Noroeste 22 Noroeste 0 -- -- 81
2019-09-27 05:00:00 16.5 14 Noroeste 25 Noroeste 0 -- -- 77
2019-09-27 04:00:00 17.4 17 Noroeste 23 Noroeste 0 -- -- 71
2019-09-27 03:00:00 18.3 12 Noroeste 21 Noroeste 0 -- -- 66
2019-09-27 02:00:00 19.4 15 Noroeste 25 Noroeste 0 -- -- 63
2019-09-27 01:00:00 20.2 13 Noroeste 20 Noroeste 0 -- -- 60
2019-09-27 00:00:00 21.9 12 Noroeste 18 Noroeste 0 -- -- 49
2019-09-26 23:00:00 23 8 Noroeste 10 Noroeste 0 -- -- 45
2019-09-26 22:00:00 24.1 6 Noroeste 11 Noroeste 0 -- -- 42
2019-09-26 21:00:00 26 8 Noroeste 12 Oeste 0 -- -- 36
2019-09-26 20:00:00 28.3 8 Noroeste 15 Noroeste 0 -- -- 31
2019-09-26 19:00:00 29.7 9 Noroeste 19 Noroeste 0 -- -- 31
2019-09-26 18:00:00 29.8 9 Noroeste 18 Noroeste 0 -- -- 32
2019-09-26 17:00:00 29.6 11 Noroeste 20 Norte 0 -- -- 32
2019-09-26 16:00:00 29 8 Norte 18 Noroeste 0 -- -- 32
2019-09-26 15:00:00 28.5 8 Noroeste 18 Norte 0 -- -- 34
2019-09-26 14:00:00 27.2 5 Noroeste 13 Sudoeste 0 -- -- 38
2019-09-26 13:00:00 24.7 6 Noroeste 16 Noroeste 0 -- -- 46
2019-09-26 12:00:00 21.4 11 Noroeste 19 Oeste 0 -- -- 60
2019-09-26 11:00:00 18.2 11 Noroeste 20 Noroeste 0 -- -- 72
2019-09-26 10:00:00 15.4 13 Noroeste 22 Noroeste 0 -- -- 83
2019-09-26 09:00:00 13.7 15 Noroeste 23 Noroeste 0 -- -- 90
2019-09-26 08:00:00 13.5 14 Noroeste 22 Noroeste 0 -- -- 90
2019-09-26 07:00:00 13.9 16 Noroeste 22 Oeste 0 -- -- 88
2019-09-26 06:00:00 14.5 14 Noroeste 22 Noroeste 0 -- -- 85
2019-09-26 05:00:00 15.1 14 Noroeste 22 Noroeste 0 -- -- 81
2019-09-26 04:00:00 15.9 13 Noroeste 21 Noroeste 0 -- -- 75
2019-09-26 03:00:00 16.9 12 Noroeste 19 Noroeste 0 -- -- 69
2019-09-26 02:00:00 18.4 12 Noroeste 19 Noroeste 0 -- -- 63
2019-09-26 01:00:00 19.1 12 Noroeste 21 Noroeste 0 -- -- 59
2019-09-26 00:00:00 20.3 13 Noroeste 22 Noroeste 0 -- -- 55
2019-09-25 23:00:00 21.2 11 Noroeste 23 Norte 0 -- -- 51
2019-09-25 22:00:00 22.4 12 Noroeste 19 Noroeste 0 -- -- 45
2019-09-25 21:00:00 23.5 10 Noroeste 25 Noroeste 0 -- -- 42
2019-09-25 20:00:00 25.4 15 Norte 28 Norte 0 -- -- 37
2019-09-25 19:00:00 26.7 17 Noroeste 31 Noroeste 0 -- -- 34
2019-09-25 18:00:00 27.2 16 Norte 30 Noroeste 0 -- -- 34
2019-09-25 17:00:00 27 15 Noroeste 31 Noroeste 0 -- -- 37
2019-09-25 16:00:00 26.1 16 Noroeste 30 Norte 0 -- -- 40
2019-09-25 15:00:00 25 15 Noroeste 36 Noroeste 0 -- -- 44
2019-09-25 14:00:00 23.4 15 Norte 27 Noroeste 0 -- -- 50
2019-09-25 13:00:00 22 13 Norte 25 Norte 0 -- -- 55
2019-09-25 12:00:00 19.5 14 Noroeste 24 Noroeste 0 -- -- 68
2019-09-25 11:00:00 17.5 15 Noroeste 26 Noroeste 0 -- -- 78
2019-09-25 10:00:00 15.6 14 Noroeste 25 Norte 0 -- -- 92
2019-09-25 09:00:00 14.3 13 Noroeste 20 Noroeste 0 -- -- 97
2019-09-25 08:00:00 14.6 12 Noroeste 21 Noroeste 0 -- -- 96
2019-09-25 07:00:00 15.5 13 Noroeste 22 Noroeste 0 -- -- 94
2019-09-25 06:00:00 16.2 11 Norte 22 Norte 0 -- -- 94
2019-09-25 05:00:00 16.8 14 Norte 24 Norte 0 -- -- 94
2019-09-25 04:00:00 17.5 10 Norte 28 Noroeste 0 -- -- 92
2019-09-25 03:00:00 18.4 14 Noroeste 26 Noroeste 0 -- -- 89
2019-09-25 02:00:00 19.2 13 Noroeste 21 Noroeste 0 -- -- 88
2019-09-25 01:00:00 20.1 13 Noroeste 22 Noroeste 0 -- -- 88
2019-09-25 00:00:00 21.1 14 Noroeste 23 Noroeste 0 -- -- 85
2019-09-24 23:00:00 22 17 Noroeste 35 Noroeste 0 -- -- 80
2019-09-24 22:00:00 23.3 20 Noroeste 34 Noroeste 0 -- -- 73
2019-09-24 21:00:00 24.8 20 Noroeste 29 Noroeste 0 -- -- 64
2019-09-24 20:00:00 26.6 17 Noroeste 31 Noroeste 0 -- -- 54
2019-09-24 19:00:00 28.1 18 Noroeste 32 Noroeste 0 -- -- 47
2019-09-24 18:00:00 29.1 19 Noroeste 31 Oeste 0 -- -- 41
2019-09-24 17:00:00 29.5 14 Noroeste 30 Oeste 0 -- -- 33
2019-09-24 16:00:00 28.9 15 Noroeste 29 Noroeste 0 -- -- 30
2019-09-24 15:00:00 27.9 10 Norte 24 Noroeste 0 -- -- 29
2019-09-24 14:00:00 26.6 14 Noroeste 26 Noroeste 0 -- -- 39
2019-09-24 13:00:00 24.9 17 Noroeste 24 Noroeste 0 -- -- 44
2019-09-24 12:00:00 23.3 11 Norte 19 Noroeste 0 -- -- 51
2019-09-24 11:00:00 20.5 10 Noroeste 17 Noroeste 0 -- -- 68
2019-09-24 10:00:00 17 9 Noroeste 15 Noroeste 0 -- -- 84
2019-09-24 09:00:00 14.4 12 Noroeste 16 Noroeste 0 -- -- 94
2019-09-24 08:00:00 14.2 11 Noroeste 23 Noroeste 0 -- -- 94
2019-09-24 07:00:00 14.5 16 Noroeste 22 Noroeste 0 -- -- 94
2019-09-24 06:00:00 14.7 12 Noroeste 25 Noroeste 0 -- -- 93
2019-09-24 05:00:00 15.3 12 Noroeste 22 Noroeste 0 -- -- 91
2019-09-24 04:00:00 15.8 18 Noroeste 26 Noroeste 0 -- -- 88
2019-09-24 03:00:00 16.5 19 Noroeste 28 Noroeste 0 -- -- 84
2019-09-24 02:00:00 17.3 18 Noroeste 27 Noroeste 0 -- -- 79
2019-09-24 01:00:00 18.1 14 Noroeste 18 Noroeste 0 -- -- 72
2019-09-24 00:00:00 19.4 12 Noroeste 19 Noroeste 0 -- -- 60
2019-09-23 23:00:00 21.2 10 Noroeste 16 Noroeste 0 -- -- 44
2019-09-23 22:00:00 22.5 9 Noroeste 17 Noroeste 0 -- -- 38
2019-09-23 21:00:00 23.8 11 Noroeste 21 Noroeste 0 -- -- 35
2019-09-23 20:00:00 25.8 15 Noroeste 23 Noroeste 0 -- -- 32
2019-09-23 19:00:00 27.1 10 Noroeste 19 Noroeste 0 -- -- 33
2019-09-23 18:00:00 27.2 10 Noroeste 18 Noroeste 0 -- -- 35
2019-09-23 17:00:00 26.8 8 Norte 18 Noroeste 0 -- -- 36
2019-09-23 16:00:00 26.1 10 Noroeste 19 Noroeste 0 -- -- 40
2019-09-23 15:00:00 25.6 4 Nordeste 20 Sudoeste 0 -- -- 41
2019-09-23 14:00:00 24.1 8 Noroeste 18 Noroeste 0 -- -- 45
2019-09-23 13:00:00 23.1 5 Nordeste 13 Noroeste 0 -- -- 52
2019-09-23 12:00:00 21.2 8 Norte 13 Norte 0 -- -- 57
2019-09-23 11:00:00 18.6 6 Norte 13 Noroeste 0 -- -- 69
2019-09-23 10:00:00 15.4 0 Calma 15 Noroeste 0 -- -- 86
2019-09-23 09:00:00 13.3 6 Noroeste 14 Noroeste 0 -- -- 91
2019-09-23 08:00:00 13.2 8 Noroeste 12 Norte 0 -- -- 90
2019-09-23 07:00:00 13 6 Noroeste 13 Noroeste 0 -- -- 91
2019-09-23 06:00:00 13.1 7 Noroeste 13 Noroeste 0 -- -- 91
2019-09-23 05:00:00 13.3 12 Noroeste 21 Noroeste 0 -- -- 90
2019-09-23 04:00:00 13.8 12 Noroeste 19 Noroeste 0 -- -- 86
2019-09-23 03:00:00 14.6 13 Noroeste 18 Noroeste 0 -- -- 80
2019-09-23 02:00:00 15.4 10 Noroeste 19 Noroeste 0 -- -- 77
2019-09-23 01:00:00 16.1 12 Noroeste 18 Noroeste 0 -- -- 75
2019-09-23 00:00:00 17 10 Noroeste 17 Noroeste 0 -- -- 71
2019-09-22 23:00:00 18.2 9 Noroeste 14 Noroeste 0 -- -- 65
2019-09-22 22:00:00 19.2 8 Noroeste 17 Noroeste 0 -- -- 64
2019-09-22 21:00:00 20.5 10 Noroeste 18 Noroeste 0 -- -- 63
2019-09-22 20:00:00 22 8 Noroeste 21 Noroeste 0 -- -- 56
2019-09-22 19:00:00 23.2 12 Noroeste 21 Noroeste 0 -- -- 50
2019-09-22 18:00:00 23.2 11 Noroeste 27 Noroeste 0 -- -- 51
2019-09-22 17:00:00 22.5 14 Noroeste 27 Noroeste 0 -- -- 54
2019-09-22 16:00:00 22.4 17 Noroeste 29 Noroeste 0 -- -- 59
2019-09-22 15:00:00 21.7 14 Noroeste 29 Noroeste 0 -- -- 63
2019-09-22 14:00:00 20.6 18 Noroeste 31 Noroeste 0 -- -- 69
2019-09-22 13:00:00 19.8 17 Noroeste 30 Noroeste 0 -- -- 75
2019-09-22 12:00:00 18.4 12 Noroeste 24 Noroeste 0 -- -- 82
2019-09-22 11:00:00 17 16 Norte 25 Noroeste 0 -- -- 88
2019-09-22 10:00:00 15.2 14 Norte 21 Noroeste 0.2 -- -- 98
2019-09-22 09:00:00 13.9 12 Noroeste 19 Noroeste 0 -- -- 99
2019-09-22 08:00:00 13.9 11 Noroeste 22 Noroeste 0 -- -- 98
2019-09-22 07:00:00 14.4 13 Noroeste 22 Noroeste 0 -- -- 98
2019-09-22 06:00:00 15.2 15 Noroeste 30 Noroeste 0 -- -- 96
2019-09-22 05:00:00 16.4 17 Noroeste 27 Noroeste 0 -- -- 98
2019-09-22 04:00:00 17.3 17 Noroeste 26 Oeste 0 -- -- 99
2019-09-22 03:00:00 18.7 11 Oeste 37 Sudoeste 3.4 -- -- 99
2019-09-22 02:00:00 19 21 Sur 34 Sudoeste 0.2 -- -- 99
2019-09-22 01:00:00 19 25 Sur 42 Sur 0.2 -- -- 99
2019-09-22 00:00:00 19.2 19 Sur 31 Sur 0 -- -- 99
2019-09-21 23:00:00 19.1 17 Sur 31 Sur 1.8 -- -- 99
2019-09-21 22:00:00 19.1 17 Sur 24 Sudoeste 1.8 -- -- 98
2019-09-21 21:00:00 19.2 16 Sur 27 Sudoeste 0 -- -- 97
2019-09-21 20:00:00 19.7 21 Sudoeste 35 Sur 0.2 -- -- 96
2019-09-21 19:00:00 19.8 19 Sur 34 Sur 0.2 -- -- 97
2019-09-21 18:00:00 20.2 21 Sur 35 Sur 0 -- -- 93
2019-09-21 17:00:00 20.6 22 Sur 32 Sur 0 -- -- 90
2019-09-21 16:00:00 20.1 22 Sur 34 Sur 0 -- -- 94
2019-09-21 15:00:00 19.6 18 Sur 28 Sur 0.4 -- -- 97
2019-09-21 14:00:00 19.5 19 Sur 33 Sur 1 -- -- 96
2019-09-21 13:00:00 19.3 15 Sur 31 Sur 0.4 -- -- 96
2019-09-21 12:00:00 18.5 13 Sur 22 Sur 0.2 -- -- 99
2019-09-21 11:00:00 17.9 13 Sur 23 Sudeste 0.8 -- -- 98
2019-09-21 10:00:00 17.6 13 Sur 27 Sudeste 0 -- -- 98
2019-09-21 09:00:00 17.2 12 Sudeste 21 Sudeste 0 -- -- 99
2019-09-21 08:00:00 17.2 13 Sudeste 22 Sudeste 0 -- -- 98
2019-09-21 07:00:00 17.1 9 Sur 19 Sur 0 -- -- 98
2019-09-21 06:00:00 16.6 10 Sur 22 Sur 0 -- -- 95
2019-09-21 05:00:00 16.5 17 Sur 23 Sur 0 -- -- 94
2019-09-21 04:00:00 16.9 15 Sur 20 Sur 0 -- -- 94
2019-09-21 03:00:00 17.1 13 Sur 19 Sur 0 -- -- 95
2019-09-21 02:00:00 18 10 Sudeste 16 Sudeste 0 -- -- 87
2019-09-21 01:00:00 18.7 9 Sur 18 Sur 0 -- -- 80
2019-09-21 00:00:00 18.5 9 Sudoeste 20 Sur 0 -- -- 84
2019-09-20 23:00:00 18.6 11 Sur 17 Sur 0 -- -- 84
2019-09-20 22:00:00 19.6 11 Sur 15 Sur 0 -- -- 80
2019-09-20 21:00:00 19.8 9 Oeste 17 Sudoeste 0 -- -- 78
2019-09-20 20:00:00 21.6 8 Sudoeste 19 Sudoeste 0 -- -- 71
2019-09-20 19:00:00 22.1 14 Sur 24 Sur 0 -- -- 71
2019-09-20 18:00:00 22 7 Oeste 25 Sudeste 0.6 -- -- 73
2019-09-20 17:00:00 21.5 7 Sur 19 Sur 0.4 -- -- 67
2019-09-20 16:00:00 23 9 Sudeste 20 Sudoeste 0 -- -- 55
2019-09-20 15:00:00 24 17 Sur 26 Sur 0 -- -- 52
2019-09-20 14:00:00 24.2 15 Sur 27 Sudoeste 0 -- -- 57
2019-09-20 13:00:00 22.7 13 Sur 24 Sur 0 -- -- 62
2019-09-20 12:00:00 20.4 12 Sur 17 Sur 0 -- -- 75
2019-09-20 11:00:00 17.1 2 Oeste 8 Noroeste 0 -- -- 88
2019-09-20 10:00:00 15.8 6 Noroeste 9 Noroeste 0 -- -- 94
2019-09-20 09:00:00 15.2 4 Oeste 9 Oeste 0 -- -- 95
2019-09-20 08:00:00 15.1 3 Oeste 14 Oeste 0 -- -- 94
2019-09-20 07:00:00 15.2 6 Noroeste 15 Noroeste 0 -- -- 93
2019-09-20 06:00:00 15.3 8 Noroeste 18 Noroeste 0 -- -- 92
2019-09-20 05:00:00 15.7 10 Noroeste 18 Oeste 0 -- -- 90
2019-09-20 04:00:00 16.3 11 Noroeste 21 Noroeste 0 -- -- 87
2019-09-20 03:00:00 17 11 Noroeste 21 Noroeste 0 -- -- 83
2019-09-20 02:00:00 17.7 14 Noroeste 23 Noroeste 0 -- -- 79
2019-09-20 01:00:00 19 17 Noroeste 25 Noroeste 0 -- -- 74
2019-09-20 00:00:00 20.1 17 Noroeste 27 Noroeste 0 -- -- 69
2019-09-19 23:00:00 21.4 13 Noroeste 25 Noroeste 0 -- -- 63
2019-09-19 22:00:00 22.1 9 Sudoeste 19 Sudoeste 0 -- -- 61
2019-09-19 21:00:00 23 15 Sudoeste 24 Sudoeste 0 -- -- 57
2019-09-19 20:00:00 25.3 16 Sur 23 Sur 0 -- -- 50
2019-09-19 19:00:00 26.3 14 Sur 28 Sur 0 -- -- 47
2019-09-19 18:00:00 27.9 9 Oeste 19 Sudoeste 0 -- -- 40
2019-09-19 17:00:00 29.2 8 Oeste 19 Sudoeste 0 -- -- 37
2019-09-19 16:00:00 28.4 6 Norte 21 Sur 0 -- -- 40
2019-09-19 15:00:00 27 5 Nordeste 14 Nordeste 0 -- -- 44
2019-09-19 14:00:00 26.3 4 Nordeste 12 Norte 0 -- -- 47
2019-09-19 13:00:00 24.4 6 Noroeste 16 Este 0 -- -- 54
2019-09-19 12:00:00 22.7 4 Nordeste 10 Sudoeste 0 -- -- 61
2019-09-19 11:00:00 20.2 4 Norte 10 Noroeste 0 -- -- 70
2019-09-19 10:00:00 17 6 Noroeste 20 Noroeste 0 -- -- 86
2019-09-19 09:00:00 14.4 12 Noroeste 19 Noroeste 0 -- -- 97
2019-09-19 08:00:00 14.1 14 Noroeste 21 Noroeste 0 -- -- 96
2019-09-19 07:00:00 14.4 13 Noroeste 21 Oeste 0 -- -- 95
2019-09-19 06:00:00 14.9 12 Noroeste 19 Noroeste 0 -- -- 92
2019-09-19 05:00:00 15.3 13 Noroeste 20 Noroeste 0 -- -- 90
2019-09-19 04:00:00 15.8 13 Noroeste 22 Noroeste 0 -- -- 88
2019-09-19 03:00:00 16.3 12 Noroeste 22 Noroeste 0 -- -- 83
2019-09-19 02:00:00 17.3 15 Noroeste 23 Noroeste 0 -- -- 77
2019-09-19 01:00:00 18.4 17 Noroeste 28 Noroeste 0 -- -- 71
2019-09-19 00:00:00 19.7 15 Noroeste 26 Noroeste 0 -- -- 62
2019-09-18 23:00:00 21.2 12 Noroeste 22 Noroeste 0 -- -- 57
2019-09-18 22:00:00 22.7 6 Sudoeste 9 Oeste 0 -- -- 59
2019-09-18 21:00:00 24.1 6 Oeste 17 Noroeste 0 -- -- 47
2019-09-18 20:00:00 25.5 11 Noroeste 19 Noroeste 0 -- -- 44
2019-09-18 19:00:00 27.5 9 Noroeste 23 Noroeste 0 -- -- 38
2019-09-18 18:00:00 26.7 12 Noroeste 22 Noroeste 0 -- -- 41
2019-09-18 17:00:00 27.2 13 Noroeste 30 Sudoeste 0 -- -- 42
2019-09-18 16:00:00 27.4 12 Oeste 21 Oeste 0 -- -- 42
2019-09-18 15:00:00 26.7 7 Norte 19 Noroeste 0 -- -- 46
2019-09-18 14:00:00 24.6 8 Noroeste 19 Oeste 0 -- -- 51
2019-09-18 13:00:00 24 6 Noroeste 14 Oeste 0 -- -- 55
2019-09-18 12:00:00 21.7 8 Norte 14 Noroeste 0 -- -- 64
2019-09-18 11:00:00 19.7 6 Noroeste 16 Noroeste 0 -- -- 73
2019-09-18 10:00:00 17 8 Noroeste 13 Oeste 0 -- -- 86
2019-09-18 09:00:00 15.2 8 Oeste 13 Oeste 0 -- -- 94
2019-09-18 08:00:00 14.7 5 Oeste 13 Oeste 0 -- -- 94
2019-09-18 07:00:00 14.9 8 Oeste 14 Noroeste 0 -- -- 93
2019-09-18 06:00:00 15.4 10 Noroeste 15 Noroeste 0 -- -- 91
2019-09-18 05:00:00 15.9 9 Noroeste 16 Noroeste 0 -- -- 88
2019-09-18 04:00:00 16.5 12 Noroeste 18 Noroeste 0 -- -- 82
2019-09-18 03:00:00 17.1 12 Noroeste 19 Noroeste 0 -- -- 78
2019-09-18 02:00:00 18 13 Noroeste 19 Noroeste 0 -- -- 75
2019-09-18 01:00:00 19 12 Noroeste 20 Noroeste 0 -- -- 71
2019-09-18 00:00:00 20.2 11 Noroeste 20 Noroeste 0 -- -- 67
2019-09-17 23:00:00 21.7 8 Oeste 15 Oeste 0 -- -- 68
2019-09-17 22:00:00 22.2 3 Sur 19 Sur 0 -- -- 68
2019-09-17 21:00:00 23.3 15 Sudoeste 28 Sur 0 -- -- 63